Time;durP1;ratioP1;P1;durP2;ratioP2;P2;SDS_P1;SDS_P2;PMS_P1;PMS_P2;Temp;Humidity;BMP_temperature;BMP_pressure;BME280_temperature;BME280_humidity;BME280_pressure;Samples;Min_cycle;Max_cycle;Signal;HPM_P1;HPM_P2
2021/06/09 00:00:22;;;;;;;22.80;19.33;;;;;;;;;;5016990;28;20248;-70
2021/06/09 00:02:48;;;;;;;24.27;19.63;;;;;;;;;;5021123;28;20338;-70
2021/06/09 00:05:14;;;;;;;25.83;18.95;;;;;;;;;;5017084;28;20214;-70
2021/06/09 00:07:39;;;;;;;23.80;19.15;;;;;;;;;;5027253;28;20272;-70
2021/06/09 00:10:06;;;;;;;22.45;18.85;;;;;;;;;;5010265;28;20199;-70
2021/06/09 00:12:32;;;;;;;21.00;18.45;;;;;;;;;;5028006;28;20633;-70
2021/06/09 00:14:58;;;;;;;22.05;19.17;;;;;;;;;;5026611;28;20553;-70
2021/06/09 00:17:24;;;;;;;22.38;19.42;;;;;;;;;;5014028;28;20825;-70
2021/06/09 00:19:49;;;;;;;29.17;20.92;;;;;;;;;;5022605;28;20273;-69
2021/06/09 00:22:15;;;;;;;22.33;18.95;;;;;;;;;;5019756;28;20186;-69
2021/06/09 00:24:40;;;;;;;25.13;19.70;;;;;;;;;;5025230;28;20200;-69
2021/06/09 00:27:06;;;;;;;24.13;21.02;;;;;;;;;;5011104;28;20192;-69
2021/06/09 00:29:31;;;;;;;24.55;20.17;;;;;;;;;;5015285;28;20326;-69
2021/06/09 00:31:57;;;;;;;25.08;19.38;;;;;;;;;;5016338;28;20178;-69
2021/06/09 00:34:22;;;;;;;26.15;20.25;;;;;;;;;;5023524;28;20193;-69
2021/06/09 00:36:47;;;;;;;23.75;19.95;;;;;;;;;;5019205;28;20200;-69
2021/06/09 00:39:13;;;;;;;23.77;20.08;;;;;;;;;;5025872;28;20189;-70
2021/06/09 00:41:38;;;;;;;24.55;21.50;;;;;;;;;;5021212;28;20229;-70
2021/06/09 00:44:05;;;;;;;25.42;21.20;;;;;;;;;;5022334;28;20227;-70
2021/06/09 00:46:36;;;;;;;25.88;22.08;;;;;;;;;;5027460;28;20204;-70
2021/06/09 00:49:03;;;;;;;27.63;23.13;;;;;;;;;;5014548;28;20710;-70
2021/06/09 00:51:28;;;;;;;27.67;22.98;;;;;;;;;;5027780;28;20182;-70
2021/06/09 00:53:57;;;;;;;28.92;23.80;;;;;;;;;;5013046;28;20193;-70
2021/06/09 00:56:24;;;;;;;29.73;22.95;;;;;;;;;;5026534;28;20255;-70
2021/06/09 00:58:51;;;;;;;29.23;23.80;;;;;;;;;;5011630;28;20190;-70
2021/06/09 01:01:18;;;;;;;28.10;23.67;;;;;;;;;;5024876;28;20202;-70
2021/06/09 01:03:45;;;;;;;28.77;23.10;;;;;;;;;;5016624;28;20607;-70
2021/06/09 01:06:10;;;;;;;28.75;22.95;;;;;;;;;;5025371;28;20181;-70
2021/06/09 01:08:38;;;;;;;27.38;23.00;;;;;;;;;;5016767;28;20625;-70
2021/06/09 01:11:05;;;;;;;27.98;23.25;;;;;;;;;;5028561;28;20186;-70
2021/06/09 01:13:31;;;;;;;25.92;22.02;;;;;;;;;;5016290;28;20198;-70
2021/06/09 01:15:58;;;;;;;31.17;22.27;;;;;;;;;;5024930;28;20197;-70
2021/06/09 01:18:24;;;;;;;26.27;22.38;;;;;;;;;;5019016;28;20273;-70
2021/06/09 01:20:52;;;;;;;26.27;21.48;;;;;;;;;;5026303;28;20335;-70
2021/06/09 01:23:18;;;;;;;27.88;21.80;;;;;;;;;;5024862;28;20194;-70
2021/06/09 01:25:44;;;;;;;26.63;22.52;;;;;;;;;;5013523;28;20193;-70
2021/06/09 01:28:10;;;;;;;27.75;22.38;;;;;;;;;;5025975;28;20668;-70
2021/06/09 01:30:37;;;;;;;31.02;23.98;;;;;;;;;;5016563;28;20227;-70
2021/06/09 01:33:04;;;;;;;31.30;24.10;;;;;;;;;;5018383;28;20213;-70
2021/06/09 01:35:30;;;;;;;28.75;23.73;;;;;;;;;;5017364;28;20194;-70
2021/06/09 01:37:55;;;;;;;31.33;24.95;;;;;;;;;;5021352;28;20567;-70
2021/06/09 01:40:23;;;;;;;28.83;23.35;;;;;;;;;;5014823;28;20273;-70
2021/06/09 01:42:49;;;;;;;31.33;23.95;;;;;;;;;;5024150;28;20213;-69
2021/06/09 01:45:20;;;;;;;29.80;23.75;;;;;;;;;;5014641;28;20244;-70
2021/06/09 01:47:46;;;;;;;27.15;23.45;;;;;;;;;;5020855;28;20646;-69
2021/06/09 01:50:15;;;;;;;30.45;24.10;;;;;;;;;;5020734;28;20665;-69
2021/06/09 01:52:41;;;;;;;28.25;23.63;;;;;;;;;;5016494;28;20190;-69
2021/06/09 01:55:09;;;;;;;34.00;25.10;;;;;;;;;;5023972;28;20260;-69
2021/06/09 01:57:34;;;;;;;33.03;25.95;;;;;;;;;;5015391;28;20191;-69
2021/06/09 02:00:03;;;;;;;32.28;24.00;;;;;;;;;;5022874;28;20175;-69
2021/06/09 02:02:28;;;;;;;28.85;24.17;;;;;;;;;;5015377;28;20209;-69
2021/06/09 02:04:54;;;;;;;29.90;24.98;;;;;;;;;;5026028;28;20269;-69
2021/06/09 02:07:19;;;;;;;33.25;25.83;;;;;;;;;;5013903;28;20189;-69
2021/06/09 02:09:46;;;;;;;29.48;24.58;;;;;;;;;;5022378;28;20194;-69
2021/06/09 02:12:11;;;;;;;33.75;25.80;;;;;;;;;;5012133;28;20217;-69
2021/06/09 02:14:37;;;;;;;33.55;27.40;;;;;;;;;;5025315;28;20182;-69
2021/06/09 02:17:04;;;;;;;34.80;27.38;;;;;;;;;;5013891;28;20224;-69
2021/06/09 02:19:30;;;;;;;34.08;27.70;;;;;;;;;;5022522;28;20175;-69
2021/06/09 02:21:56;;;;;;;33.70;25.88;;;;;;;;;;5014548;28;20248;-69
2021/06/09 02:24:22;;;;;;;36.40;27.30;;;;;;;;;;5020456;28;20182;-69
2021/06/09 02:26:49;;;;;;;32.90;25.55;;;;;;;;;;5019719;28;20664;-69
2021/06/09 02:29:15;;;;;;;30.17;25.75;;;;;;;;;;5026377;28;20220;-69
2021/06/09 02:31:46;;;;;;;32.05;25.98;;;;;;;;;;5016557;28;20188;-69
2021/06/09 02:34:17;;;;;;;35.15;26.25;;;;;;;;;;5007186;28;20222;-69
2021/06/09 02:36:43;;;;;;;33.15;25.90;;;;;;;;;;5015259;28;20191;-69
2021/06/09 02:39:09;;;;;;;31.60;24.52;;;;;;;;;;5011636;28;20235;-69
2021/06/09 02:41:35;;;;;;;27.85;23.27;;;;;;;;;;5016503;28;20186;-69
2021/06/09 02:44:01;;;;;;;31.77;24.70;;;;;;;;;;5009144;28;20287;-69
2021/06/09 02:46:39;;;;;;;31.67;25.55;;;;;;;;;;5016358;28;20193;-69
2021/06/09 02:49:08;;;;;;;31.17;25.40;;;;;;;;;;5016264;28;20733;-69
2021/06/09 02:52:03;;;;;;;37.03;25.95;;;;;;;;;;5027250;28;20202;-69
2021/06/09 02:54:36;;;;;;;31.05;26.00;;;;;;;;;;5008801;28;20210;-69
2021/06/09 02:57:13;;;;;;;35.67;26.55;;;;;;;;;;5021858;28;20191;-69
2021/06/09 02:59:57;;;;;;;33.72;25.52;;;;;;;;;;5013624;28;20200;-69
2021/06/09 03:02:35;;;;;;;31.67;24.30;;;;;;;;;;5018198;28;20202;-69
2021/06/09 03:05:15;;;;;;;34.83;26.40;;;;;;;;;;5013252;28;20536;-69
2021/06/09 03:08:18;;;;;;;34.38;25.33;;;;;;;;;;5026484;28;20443;-69
2021/06/09 03:10:53;;;;;;;33.28;26.02;;;;;;;;;;5019786;28;20280;-69
2021/06/09 03:13:29;;;;;;;32.78;25.17;;;;;;;;;;5023029;28;20186;-70
2021/06/09 03:16:05;;;;;;;36.15;27.80;;;;;;;;;;5016441;28;20189;-70
2021/06/09 03:18:47;;;;;;;35.95;26.40;;;;;;;;;;5022936;28;20187;-70
2021/06/09 03:21:39;;;;;;;36.85;27.67;;;;;;;;;;5019615;28;20597;-70
2021/06/09 03:24:04;;;;;;;34.60;27.27;;;;;;;;;;5026834;28;20206;-70
2021/06/09 03:26:41;;;;;;;37.20;27.23;;;;;;;;;;5017948;28;20208;-70
2021/06/09 03:29:44;;;;;;;35.22;26.50;;;;;;;;;;5022183;28;20197;-70
2021/06/09 03:32:21;;;;;;;32.60;25.58;;;;;;;;;;4993621;28;20215;-69
2021/06/09 03:34:54;;;;;;;33.58;25.33;;;;;;;;;;5026633;28;20209;-69
2021/06/09 03:37:23;;;;;;;32.92;26.20;;;;;;;;;;5013841;28;20221;-68
2021/06/09 03:39:56;;;;;;;37.10;27.08;;;;;;;;;;5026694;28;20501;-69
2021/06/09 03:42:22;;;;;;;34.35;27.80;;;;;;;;;;5014836;28;20546;-68
2021/06/09 03:44:53;;;;;;;37.05;28.65;;;;;;;;;;5025987;28;20222;-69
2021/06/09 03:47:20;;;;;;;36.72;27.25;;;;;;;;;;5016344;28;20553;-69
2021/06/09 03:49:46;;;;;;;33.72;27.05;;;;;;;;;;5021802;28;20220;-69
2021/06/09 03:52:12;;;;;;;36.65;27.25;;;;;;;;;;5018512;28;20208;-69
2021/06/09 03:54:41;;;;;;;36.63;27.55;;;;;;;;;;5026283;28;20178;-69
2021/06/09 03:57:07;;;;;;;37.10;27.50;;;;;;;;;;5014848;28;20194;-69
2021/06/09 03:59:32;;;;;;;31.02;24.92;;;;;;;;;;5035159;28;20178;-69
2021/06/09 04:01:59;;;;;;;33.50;25.25;;;;;;;;;;5019011;28;20984;-69
2021/06/09 04:04:28;;;;;;;29.85;24.20;;;;;;;;;;5028193;28;20192;-69
2021/06/09 04:06:56;;;;;;;27.73;23.63;;;;;;;;;;5018238;28;20188;-69
2021/06/09 04:09:23;;;;;;;31.50;25.50;;;;;;;;;;5021856;28;20201;-69
2021/06/09 04:11:52;;;;;;;34.30;27.45;;;;;;;;;;5027712;28;20200;-69
2021/06/09 04:14:21;;;;;;;31.13;26.10;;;;;;;;;;5016650;28;20312;-69
2021/06/09 04:16:47;;;;;;;33.72;27.27;;;;;;;;;;5026373;28;20269;-69
2021/06/09 04:19:14;;;;;;;36.85;28.45;;;;;;;;;;5011763;28;20265;-70
2021/06/09 04:21:40;;;;;;;35.00;27.25;;;;;;;;;;5024872;28;20190;-69
2021/06/09 04:24:05;;;;;;;34.13;26.73;;;;;;;;;;5013457;28;20688;-70
2021/06/09 04:26:33;;;;;;;34.50;27.58;;;;;;;;;;5020714;28;20199;-70
2021/06/09 04:28:58;;;;;;;35.15;26.52;;;;;;;;;;5009844;28;20604;-70
2021/06/09 04:31:25;;;;;;;31.67;25.60;;;;;;;;;;5017462;28;20232;-70
2021/06/09 04:33:55;;;;;;;30.08;23.92;;;;;;;;;;5011440;28;20229;-70
2021/06/09 04:36:21;;;;;;;26.75;23.30;;;;;;;;;;5019869;28;20181;-70
2021/06/09 04:38:46;;;;;;;29.02;23.95;;;;;;;;;;5011235;28;20542;-70
2021/06/09 04:41:12;;;;;;;25.88;21.77;;;;;;;;;;5016436;28;20178;-70
2021/06/09 04:43:38;;;;;;;28.73;23.33;;;;;;;;;;5008061;28;20237;-70
2021/06/09 04:46:04;;;;;;;29.25;24.85;;;;;;;;;;5023558;28;20218;-70
2021/06/09 04:48:29;;;;;;;26.88;22.30;;;;;;;;;;5020031;28;20584;-70
2021/06/09 04:50:55;;;;;;;24.88;22.17;;;;;;;;;;5014097;28;20236;-70
2021/06/09 04:53:21;;;;;;;26.70;23.08;;;;;;;;;;5042368;28;20190;-70
2021/06/09 04:55:55;;;;;;;30.20;24.23;;;;;;;;;;5017770;28;20189;-70
2021/06/09 04:58:24;;;;;;;26.17;23.38;;;;;;;;;;5023510;28;20188;-70
2021/06/09 05:00:50;;;;;;;28.42;23.40;;;;;;;;;;5009585;28;20212;-69
2021/06/09 05:03:16;;;;;;;25.67;22.95;;;;;;;;;;5028179;28;20188;-70
2021/06/09 05:05:42;;;;;;;29.00;23.73;;;;;;;;;;5017222;28;20277;-69
2021/06/09 05:08:08;;;;;;;29.48;24.83;;;;;;;;;;5017825;28;20178;-69
2021/06/09 05:10:38;;;;;;;27.38;24.05;;;;;;;;;;5009841;28;20297;-69
2021/06/09 05:13:08;;;;;;;31.13;25.25;;;;;;;;;;5017870;28;20643;-69
2021/06/09 05:15:39;;;;;;;27.48;24.45;;;;;;;;;;5005495;28;20196;-69
2021/06/09 05:18:25;;;;;;;26.98;22.98;;;;;;;;;;5016976;28;20763;-69
2021/06/09 05:20:51;;;;;;;27.67;23.42;;;;;;;;;;5008346;28;21807;-69
2021/06/09 05:23:23;;;;;;;28.73;24.27;;;;;;;;;;5015680;28;20527;-69
2021/06/09 05:25:50;;;;;;;28.23;24.27;;;;;;;;;;5016759;28;20194;-69
2021/06/09 05:28:17;;;;;;;28.92;23.95;;;;;;;;;;5025289;28;20300;-69
2021/06/09 05:30:43;;;;;;;27.77;23.85;;;;;;;;;;5024216;28;20210;-69
2021/06/09 05:33:09;;;;;;;25.92;20.13;;;;;;;;;;5018661;28;20190;-69
2021/06/09 05:35:35;;;;;;;25.08;20.58;;;;;;;;;;5022510;28;20182;-69
2021/06/09 05:38:02;;;;;;;26.15;22.63;;;;;;;;;;5011780;28;20629;-70
2021/06/09 05:40:28;;;;;;;25.75;21.92;;;;;;;;;;5023611;28;20236;-70
2021/06/09 05:42:53;;;;;;;27.00;22.33;;;;;;;;;;5009985;28;20612;-70
2021/06/09 05:45:29;;;;;;;24.35;21.15;;;;;;;;;;5022959;28;20208;-70
2021/06/09 05:47:54;;;;;;;24.00;20.25;;;;;;;;;;5014090;28;20246;-70
2021/06/09 05:50:22;;;;;;;25.77;20.98;;;;;;;;;;5024548;28;20219;-70
2021/06/09 05:52:51;;;;;;;26.05;19.70;;;;;;;;;;5015173;28;20646;-70
2021/06/09 05:55:20;;;;;;;22.13;19.67;;;;;;;;;;4328835;28;10000693;-70
2021/06/09 05:57:46;;;;;;;27.58;22.00;;;;;;;;;;5011513;28;21626;-70
2021/06/09 06:00:12;;;;;;;21.42;19.13;;;;;;;;;;5021949;28;20186;-69
2021/06/09 06:02:38;;;;;;;26.05;20.17;;;;;;;;;;5014509;28;20197;-70
2021/06/09 06:05:09;;;;;;;25.15;20.17;;;;;;;;;;5019069;28;20190;-69
2021/06/09 06:07:35;;;;;;;21.38;17.80;;;;;;;;;;5018162;28;20185;-69
2021/06/09 06:10:02;;;;;;;23.27;18.05;;;;;;;;;;5006716;28;20249;-69
2021/06/09 06:12:28;;;;;;;20.55;18.40;;;;;;;;;;5017006;28;20746;-69
2021/06/09 06:14:54;;;;;;;26.23;17.83;;;;;;;;;;5016348;28;20189;-69
2021/06/09 06:17:19;;;;;;;22.92;18.67;;;;;;;;;;5012953;28;20545;-70
2021/06/09 06:19:48;;;;;;;23.52;19.42;;;;;;;;;;5014362;28;20520;-70
2021/06/09 06:22:14;;;;;;;24.02;19.83;;;;;;;;;;5017867;28;20191;-70
2021/06/09 06:24:41;;;;;;;22.58;19.13;;;;;;;;;;5022591;28;20188;-70
2021/06/09 06:27:08;;;;;;;22.55;19.00;;;;;;;;;;5022051;28;20222;-69
2021/06/09 06:29:34;;;;;;;22.58;19.52;;;;;;;;;;5025341;28;20225;-69
2021/06/09 06:32:01;;;;;;;21.58;18.02;;;;;;;;;;5021344;28;20214;-69
2021/06/09 06:34:27;;;;;;;24.20;19.40;;;;;;;;;;5024553;28;20236;-69
2021/06/09 06:36:55;;;;;;;22.60;18.58;;;;;;;;;;5026523;28;20269;-69
2021/06/09 06:39:21;;;;;;;20.70;17.90;;;;;;;;;;5025499;28;20174;-70
2021/06/09 06:41:46;;;;;;;22.02;18.23;;;;;;;;;;5019079;28;20711;-70
2021/06/09 06:44:12;;;;;;;26.23;19.55;;;;;;;;;;5026569;28;20234;-70
2021/06/09 06:46:37;;;;;;;22.70;17.45;;;;;;;;;;5018365;28;20191;-70
2021/06/09 06:49:03;;;;;;;18.08;16.20;;;;;;;;;;5027706;28;20573;-70
2021/06/09 06:51:29;;;;;;;17.98;13.95;;;;;;;;;;5016833;28;20403;-70
2021/06/09 06:53:55;;;;;;;16.17;12.80;;;;;;;;;;5031971;28;20178;-70
2021/06/09 06:56:21;;;;;;;16.35;14.32;;;;;;;;;;5011701;28;20585;-70
2021/06/09 06:58:50;;;;;;;16.85;13.38;;;;;;;;;;5028670;28;20611;-70
2021/06/09 07:01:27;;;;;;;19.27;14.50;;;;;;;;;;5014134;28;20339;-70
2021/06/09 07:03:55;;;;;;;19.80;14.60;;;;;;;;;;5031425;28;20188;-70
2021/06/09 07:06:20;;;;;;;16.95;13.43;;;;;;;;;;5014314;28;20204;-70
2021/06/09 07:08:47;;;;;;;15.88;13.98;;;;;;;;;;5029252;28;20186;-70
2021/06/09 07:11:13;;;;;;;18.50;14.52;;;;;;;;;;5022470;28;20767;-70
2021/06/09 07:13:39;;;;;;;19.60;15.35;;;;;;;;;;5023679;28;20208;-70
2021/06/09 07:16:06;;;;;;;17.88;15.00;;;;;;;;;;5025202;28;20588;-70
2021/06/09 07:18:32;;;;;;;19.15;14.55;;;;;;;;;;5022153;28;20212;-70
2021/06/09 07:20:58;;;;;;;21.02;16.02;;;;;;;;;;5024267;28;20190;-70
2021/06/09 07:23:23;;;;;;;18.52;16.52;;;;;;;;;;5024156;28;20189;-70
2021/06/09 07:25:51;;;;;;;18.88;15.88;;;;;;;;;;5026764;28;20190;-74
2021/06/09 07:28:21;;;;;;;21.40;16.23;;;;;;;;;;5019815;28;20277;-70
2021/06/09 07:30:50;;;;;;;21.05;17.10;;;;;;;;;;5026380;28;20685;-70
2021/06/09 07:33:15;;;;;;;21.10;17.17;;;;;;;;;;5017619;28;20577;-68
2021/06/09 07:35:42;;;;;;;18.00;16.20;;;;;;;;;;5025120;28;20190;-68
2021/06/09 07:38:17;;;;;;;20.35;17.23;;;;;;;;;;5014034;28;20191;-69
2021/06/09 07:40:46;;;;;;;19.90;16.55;;;;;;;;;;5020257;28;20185;-68
2021/06/09 07:43:17;;;;;;;17.67;15.77;;;;;;;;;;5021444;28;20280;-69
2021/06/09 07:45:46;;;;;;;20.73;17.02;;;;;;;;;;5025032;28;20198;-69
2021/06/09 07:48:15;;;;;;;20.40;17.15;;;;;;;;;;5018337;28;20228;-69
2021/06/09 07:50:44;;;;;;;22.75;17.42;;;;;;;;;;5018068;28;20214;-68
2021/06/09 07:53:11;;;;;;;23.83;18.20;;;;;;;;;;5026617;28;20232;-69
2021/06/09 07:55:41;;;;;;;21.48;17.70;;;;;;;;;;5019345;28;20580;-68
2021/06/09 07:58:07;;;;;;;20.15;17.95;;;;;;;;;;5022602;28;20182;-69
2021/06/09 08:00:33;;;;;;;21.27;18.42;;;;;;;;;;5013696;28;20218;-69
2021/06/09 08:02:59;;;;;;;21.25;17.55;;;;;;;;;;5021798;28;20708;-69
2021/06/09 08:05:27;;;;;;;19.73;17.63;;;;;;;;;;5016093;28;20186;-68
2021/06/09 08:07:53;;;;;;;18.55;16.58;;;;;;;;;;5022877;28;20191;-69
2021/06/09 08:10:19;;;;;;;22.15;18.95;;;;;;;;;;5018926;28;20229;-69
2021/06/09 08:12:48;;;;;;;20.90;18.60;;;;;;;;;;5024262;28;20186;-69
2021/06/09 08:15:13;;;;;;;16.38;14.68;;;;;;;;;;5016221;28;20632;-69
2021/06/09 08:17:44;;;;;;;17.33;14.55;;;;;;;;;;5030248;28;20175;-69
2021/06/09 08:20:11;;;;;;;16.88;14.02;;;;;;;;;;5014540;28;20701;-69
2021/06/09 08:22:40;;;;;;;17.33;15.52;;;;;;;;;;5020803;28;20186;-69
2021/06/09 08:25:07;;;;;;;22.15;15.63;;;;;;;;;;5017785;28;26100;-69
2021/06/09 08:27:33;;;;;;;20.40;16.08;;;;;;;;;;5022098;28;20213;-69
2021/06/09 08:29:58;;;;;;;17.30;15.38;;;;;;;;;;5027098;28;20249;-69
2021/06/09 08:32:23;;;;;;;17.63;15.35;;;;;;;;;;5011307;28;20201;-69
2021/06/09 08:34:49;;;;;;;20.75;14.18;;;;;;;;;;5020580;28;20178;-69
2021/06/09 08:37:14;;;;;;;15.52;13.68;;;;;;;;;;5011888;28;20190;-69
2021/06/09 08:39:39;;;;;;;16.65;14.43;;;;;;;;;;5016130;28;20600;-68
2021/06/09 08:42:06;;;;;;;21.83;17.15;;;;;;;;;;5009388;28;20182;-68
2021/06/09 08:44:38;;;;;;;18.17;16.10;;;;;;;;;;5018592;28;20763;-68
2021/06/09 08:47:04;;;;;;;19.08;15.63;;;;;;;;;;5016502;28;20255;-68
2021/06/09 08:49:30;;;;;;;15.52;13.90;;;;;;;;;;5027448;28;20216;-67
2021/06/09 08:51:55;;;;;;;14.30;12.55;;;;;;;;;;5009159;28;20253;-68
2021/06/09 08:54:23;;;;;;;17.58;12.63;;;;;;;;;;5017268;28;20190;-68
2021/06/09 08:56:50;;;;;;;17.92;15.10;;;;;;;;;;5010201;28;20598;-68
2021/06/09 08:59:16;;;;;;;17.17;15.45;;;;;;;;;;5017909;28;20205;-68
2021/06/09 09:01:41;;;;;;;17.27;14.10;;;;;;;;;;5014085;28;20214;-68
2021/06/09 09:04:06;;;;;;;17.85;13.07;;;;;;;;;;5015255;28;20256;-68
2021/06/09 09:06:32;;;;;;;20.48;13.85;;;;;;;;;;5020831;28;20186;-68
2021/06/09 09:08:57;;;;;;;16.60;13.60;;;;;;;;;;5014489;28;20205;-68
2021/06/09 09:11:24;;;;;;;16.40;12.35;;;;;;;;;;5024348;28;20181;-68
2021/06/09 09:13:49;;;;;;;16.67;13.57;;;;;;;;;;5009876;28;20196;-68
2021/06/09 09:16:15;;;;;;;13.55;12.25;;;;;;;;;;5021242;28;20195;-68
2021/06/09 09:18:46;;;;;;;16.20;13.18;;;;;;;;;;5013240;28;20190;-68
2021/06/09 09:21:31;;;;;;;18.23;12.65;;;;;;;;;;5019690;28;20766;-69
2021/06/09 09:23:56;;;;;;;12.98;11.68;;;;;;;;;;5012801;28;20186;-68
2021/06/09 09:26:29;;;;;;;16.67;11.60;;;;;;;;;;5023446;28;20196;-68
2021/06/09 09:29:15;;;;;;;16.50;12.70;;;;;;;;;;5008577;28;20590;-69
2021/06/09 09:31:49;;;;;;;16.63;14.63;;;;;;;;;;5020129;28;20856;-68
2021/06/09 09:34:48;;;;;;;17.30;14.77;;;;;;;;;;5012024;28;20201;-67
2021/06/09 09:37:13;;;;;;;17.35;13.55;;;;;;;;;;5015929;28;20646;-68
2021/06/09 09:39:41;;;;;;;15.95;14.15;;;;;;;;;;5006906;28;20182;-68
2021/06/09 09:42:20;;;;;;;14.77;13.20;;;;;;;;;;5020587;28;20190;-68
2021/06/09 09:44:46;;;;;;;15.55;12.43;;;;;;;;;;5016777;28;20233;-69
2021/06/09 09:47:17;;;;;;;15.18;13.57;;;;;;;;;;5020218;28;20197;-69
2021/06/09 09:49:43;;;;;;;16.58;14.30;;;;;;;;;;5007985;28;20570;-68
2021/06/09 09:52:09;;;;;;;15.80;14.23;;;;;;;;;;5018479;28;20264;-69
2021/06/09 09:54:36;;;;;;;15.02;13.15;;;;;;;;;;5013455;28;20282;-67
2021/06/09 09:57:07;;;;;;;16.52;12.85;;;;;;;;;;5024361;28;20200;-69
2021/06/09 09:59:34;;;;;;;15.13;13.70;;;;;;;;;;5015263;28;20232;-68
2021/06/09 10:02:02;;;;;;;13.48;12.07;;;;;;;;;;5028446;28;20209;-71
2021/06/09 10:04:33;;;;;;;14.73;13.30;;;;;;;;;;5024987;28;20205;-69
2021/06/09 10:06:58;;;;;;;16.20;13.55;;;;;;;;;;5017236;28;20190;-70
2021/06/09 10:09:29;;;;;;;16.13;13.75;;;;;;;;;;5022698;28;20583;-69
2021/06/09 10:11:57;;;;;;;14.10;11.80;;;;;;;;;;5015154;28;20236;-70
2021/06/09 10:14:25;;;;;;;14.38;11.93;;;;;;;;;;5025254;28;20185;-69
2021/06/09 10:17:07;;;;;;;13.27;10.88;;;;;;;;;;5015573;28;20190;-69
2021/06/09 10:19:37;;;;;;;14.35;13.00;;;;;;;;;;5025421;28;20561;-70
2021/06/09 10:22:12;;;;;;;14.48;12.85;;;;;;;;;;5013166;28;20186;-69
2021/06/09 10:24:49;;;;;;;14.48;12.98;;;;;;;;;;5024971;28;20188;-69
2021/06/09 10:27:16;;;;;;;12.35;11.05;;;;;;;;;;5013001;28;20194;-69
2021/06/09 10:29:41;;;;;;;14.50;12.27;;;;;;;;;;5016759;28;20213;-69
2021/06/09 10:32:13;;;;;;;13.52;12.18;;;;;;;;;;5015623;28;20549;-69
2021/06/09 10:34:42;;;;;;;14.32;12.75;;;;;;;;;;5023051;28;20186;-69
2021/06/09 10:37:09;;;;;;;13.57;12.15;;;;;;;;;;5007661;28;20195;-69
2021/06/09 10:39:37;;;;;;;16.00;12.55;;;;;;;;;;5019755;28;20197;-69
2021/06/09 10:42:12;;;;;;;12.20;10.93;;;;;;;;;;5013603;28;20190;-70
2021/06/09 10:44:41;;;;;;;14.63;10.20;;;;;;;;;;5016139;28;20597;-69
2021/06/09 10:47:17;;;;;;;14.38;12.95;;;;;;;;;;5004002;28;20637;-69
2021/06/09 10:49:43;;;;;;;13.55;11.93;;;;;;;;;;5015265;28;20235;-70
2021/06/09 10:52:10;;;;;;;13.85;12.20;;;;;;;;;;5008192;28;20316;-73
2021/06/09 10:54:35;;;;;;;13.88;12.45;;;;;;;;;;5011149;28;20249;-71
2021/06/09 10:57:01;;;;;;;14.25;11.73;;;;;;;;;;5012576;28;20186;-69
2021/06/09 10:59:31;;;;;;;16.27;13.13;;;;;;;;;;5006574;28;20182;-69
2021/06/09 11:02:02;;;;;;;14.07;12.68;;;;;;;;;;5012400;28;20194;-68
2021/06/09 11:04:34;;;;;;;13.07;11.60;;;;;;;;;;5004830;28;20761;-69
2021/06/09 11:06:59;;;;;;;12.60;11.38;;;;;;;;;;5013817;28;20515;-68
2021/06/09 11:09:28;;;;;;;14.07;11.27;;;;;;;;;;5013071;28;20226;-69
2021/06/09 11:12:11;;;;;;;13.07;11.50;;;;;;;;;;5025476;28;20709;-69
2021/06/09 11:14:44;;;;;;;13.57;11.32;;;;;;;;;;5015573;28;20190;-68
2021/06/09 11:17:10;;;;;;;13.20;11.82;;;;;;;;;;5018590;28;20230;-68
2021/06/09 11:19:38;;;;;;;12.13;10.82;;;;;;;;;;5011114;28;20225;-68
2021/06/09 11:22:19;;;;;;;12.35;11.10;;;;;;;;;;5015045;28;20187;-68
2021/06/09 11:25:07;;;;;;;13.65;11.23;;;;;;;;;;5011602;28;20618;-68
2021/06/09 11:27:33;;;;;;;10.95;8.85;;;;;;;;;;5013594;28;20194;-69
2021/06/09 11:30:00;;;;;;;10.48;9.45;;;;;;;;;;5012650;28;20214;-73
2021/06/09 11:32:25;;;;;;;12.45;11.15;;;;;;;;;;5014066;28;20704;-68
2021/06/09 11:34:59;;;;;;;11.73;10.57;;;;;;;;;;5014160;28;20186;-70
2021/06/09 11:37:26;;;;;;;13.23;11.93;;;;;;;;;;5018443;28;20186;-70
2021/06/09 11:40:04;;;;;;;13.70;11.02;;;;;;;;;;5011584;28;20186;-71
2021/06/09 11:42:30;;;;;;;11.02;9.55;;;;;;;;;;5014060;28;20214;-69
2021/06/09 11:44:55;;;;;;;11.32;10.32;;;;;;;;;;5010272;28;20233;-68
2021/06/09 11:47:26;;;;;;;11.02;9.93;;;;;;;;;;5016007;28;20209;-68
2021/06/09 11:49:54;;;;;;;12.63;10.40;;;;;;;;;;5021532;28;20296;-68
2021/06/09 11:52:21;;;;;;;10.57;9.57;;;;;;;;;;5009642;28;20182;-72
2021/06/09 11:54:46;;;;;;;11.32;10.13;;;;;;;;;;5018921;28;20243;-72
2021/06/09 11:57:21;;;;;;;11.93;10.70;;;;;;;;;;5005834;28;20629;-70
2021/06/09 11:59:49;;;;;;;11.88;10.68;;;;;;;;;;5021779;28;20188;-70
2021/06/09 12:02:26;;;;;;;10.93;9.80;;;;;;;;;;5008293;28;20248;-69
2021/06/09 12:04:54;;;;;;;10.80;9.75;;;;;;;;;;5020854;28;20205;-68
2021/06/09 12:07:25;;;;;;;11.07;9.88;;;;;;;;;;5007508;28;20197;-69
2021/06/09 12:09:55;;;;;;;10.98;9.80;;;;;;;;;;5020321;28;20678;-69
2021/06/09 12:12:23;;;;;;;9.50;8.13;;;;;;;;;;5011977;28;20269;-69
2021/06/09 12:14:51;;;;;;;11.82;10.43;;;;;;;;;;5016727;28;20186;-69
2021/06/09 12:17:21;;;;;;;11.23;10.02;;;;;;;;;;5007377;28;20189;-69
2021/06/09 12:19:52;;;;;;;12.00;10.80;;;;;;;;;;5016400;28;20556;-73
2021/06/09 12:22:19;;;;;;;12.20;11.10;;;;;;;;;;5006721;28;20276;-72
2021/06/09 12:24:58;;;;;;;13.27;11.95;;;;;;;;;;4326799;28;10000831;-69
2021/06/09 12:27:23;;;;;;;11.25;9.77;;;;;;;;;;5013781;28;20182;-69
2021/06/09 12:29:49;;;;;;;12.35;9.68;;;;;;;;;;5017309;28;20795;-69
2021/06/09 12:32:27;;;;;;;11.88;9.48;;;;;;;;;;5016791;28;20174;-69
2021/06/09 12:35:14;;;;;;;10.35;9.07;;;;;;;;;;5019031;28;20227;-68
2021/06/09 12:37:58;;;;;;;11.07;10.00;;;;;;;;;;5008317;28;20650;-69
2021/06/09 12:40:27;;;;;;;11.82;9.70;;;;;;;;;;5021074;28;20824;-67
2021/06/09 12:43:06;;;;;;;11.75;10.40;;;;;;;;;;5005006;28;20308;-68
2021/06/09 12:45:33;;;;;;;11.00;9.90;;;;;;;;;;5020018;28;20189;-68
2021/06/09 12:48:09;;;;;;;11.43;10.23;;;;;;;;;;5017789;28;20198;-68
2021/06/09 12:50:40;;;;;;;10.95;9.85;;;;;;;;;;5027514;28;20205;-68
2021/06/09 12:53:20;;;;;;;11.60;10.50;;;;;;;;;;5016460;28;20302;-68
2021/06/09 12:55:50;;;;;;;10.95;9.88;;;;;;;;;;5019955;28;20181;-69
2021/06/09 12:58:21;;;;;;;10.57;9.55;;;;;;;;;;5020092;28;20652;-69
2021/06/09 13:00:55;;;;;;;11.15;10.05;;;;;;;;;;5013904;28;20295;-68
2021/06/09 13:03:32;;;;;;;10.98;9.88;;;;;;;;;;5020680;28;20190;-69
2021/06/09 13:06:13;;;;;;;13.80;12.40;;;;;;;;;;5007225;28;20304;-69
2021/06/09 13:08:41;;;;;;;11.65;10.57;;;;;;;;;;5019825;28;20646;-67
2021/06/09 13:11:19;;;;;;;12.10;10.85;;;;;;;;;;4664040;28;9999766;-67
2021/06/09 13:13:53;;;;;;;11.80;10.63;;;;;;;;;;5017066;28;20194;-68
2021/06/09 13:16:34;;;;;;;12.02;10.13;;;;;;;;;;5025553;28;20190;-69
2021/06/09 13:19:05;;;;;;;12.18;11.00;;;;;;;;;;5017960;28;20182;-69
2021/06/09 13:21:43;;;;;;;11.30;9.63;;;;;;;;;;5013780;28;20201;-70
2021/06/09 13:24:25;;;;;;;13.77;11.75;;;;;;;;;;5014272;28;20191;-66
2021/06/09 13:26:53;;;;;;;13.63;11.65;;;;;;;;;;5007284;28;20198;-69
2021/06/09 13:29:21;;;;;;;13.63;10.82;;;;;;;;;;5016522;28;20211;-68
2021/06/09 13:31:49;;;;;;;12.60;11.13;;;;;;;;;;5009003;28;20195;-70
2021/06/09 13:34:20;;;;;;;14.68;11.10;;;;;;;;;;5016770;28;20727;-71
2021/06/09 13:36:53;;;;;;;12.43;10.73;;;;;;;;;;5004173;28;20311;-68
2021/06/09 13:39:19;;;;;;;12.38;11.18;;;;;;;;;;5013825;28;20204;-69
2021/06/09 13:41:45;;;;;;;12.40;11.20;;;;;;;;;;5007297;28;20244;-69
2021/06/09 13:44:11;;;;;;;11.90;10.60;;;;;;;;;;5012681;28;20702;-68
2021/06/09 13:46:48;;;;;;;12.15;11.05;;;;;;;;;;5008965;28;20197;-68
2021/06/09 13:49:29;;;;;;;14.82;11.35;;;;;;;;;;5017498;28;20212;-67
2021/06/09 13:51:55;;;;;;;11.30;10.15;;;;;;;;;;5004740;28;20684;-67
2021/06/09 13:54:35;;;;;;;12.95;11.70;;;;;;;;;;5011692;28;20190;-69
2021/06/09 13:57:15;;;;;;;11.85;10.30;;;;;;;;;;4999303;28;20513;-68
2021/06/09 13:59:58;;;;;;;13.13;10.85;;;;;;;;;;5012299;28;20182;-70
2021/06/09 14:02:32;;;;;;;12.25;11.15;;;;;;;;;;5005210;28;20915;-69
2021/06/09 14:05:13;;;;;;;18.45;14.82;;;;;;;;;;5009792;28;20189;-69
2021/06/09 14:07:40;;;;;;;17.58;14.73;;;;;;;;;;4999482;28;20198;-68
2021/06/09 14:10:08;;;;;;;16.17;14.48;;;;;;;;;;5012916;28;20636;-68
2021/06/09 14:12:44;;;;;;;19.55;14.52;;;;;;;;;;5003596;28;20197;-68
2021/06/09 14:15:17;;;;;;;17.58;15.73;;;;;;;;;;5013877;28;20187;-68
2021/06/09 14:17:44;;;;;;;14.82;13.00;;;;;;;;;;5002151;28;20209;-67
2021/06/09 14:20:15;;;;;;;17.95;15.32;;;;;;;;;;5011599;28;20197;-68
2021/06/09 14:22:42;;;;;;;16.15;14.43;;;;;;;;;;5010399;28;20237;-68
2021/06/09 14:25:22;;;;;;;14.55;13.00;;;;;;;;;;4999885;28;20211;-68
2021/06/09 14:28:04;;;;;;;13.60;12.18;;;;;;;;;;5012204;28;20564;-68
2021/06/09 14:30:49;;;;;;;18.38;16.25;;;;;;;;;;5003424;28;20336;-73